sensor_id;sensor_type;location;lat;lon;timestamp;P1;durP1;ratioP1;P2;durP2;ratioP2
25525;SDS011;13424;48.424;11.258;2023-09-19T00:00:46;4.85;;;2.63;;
25525;SDS011;13424;48.424;11.258;2023-09-19T00:03:12;3.53;;;2.13;;
25525;SDS011;13424;48.424;11.258;2023-09-19T00:05:38;2.22;;;1.77;;
25525;SDS011;13424;48.424;11.258;2023-09-19T00:08:14;5.63;;;2.20;;
25525;SDS011;13424;48.424;11.258;2023-09-19T00:10:40;3.55;;;1.88;;
25525;SDS011;13424;48.424;11.258;2023-09-19T00:13:07;3.55;;;2.10;;
25525;SDS011;13424;48.424;11.258;2023-09-19T00:18:14;3.35;;;1.55;;
25525;SDS011;13424;48.424;11.258;2023-09-19T00:20:41;3.22;;;1.83;;
25525;SDS011;13424;48.424;11.258;2023-09-19T00:23:07;3.47;;;1.73;;
25525;SDS011;13424;48.424;11.258;2023-09-19T00:25:34;3.22;;;1.80;;
25525;SDS011;13424;48.424;11.258;2023-09-19T00:28:02;5.53;;;2.10;;
25525;SDS011;13424;48.424;11.258;2023-09-19T00:30:30;2.28;;;1.42;;
25525;SDS011;13424;48.424;11.258;2023-09-19T00:32:56;4.88;;;1.75;;
25525;SDS011;13424;48.424;11.258;2023-09-19T00:35:22;1.98;;;1.80;;
25525;SDS011;13424;48.424;11.258;2023-09-19T00:37:49;3.83;;;2.00;;
25525;SDS011;13424;48.424;11.258;2023-09-19T00:40:16;4.93;;;2.00;;
25525;SDS011;13424;48.424;11.258;2023-09-19T00:42:43;2.90;;;2.13;;
25525;SDS011;13424;48.424;11.258;2023-09-19T00:45:12;2.92;;;2.10;;
25525;SDS011;13424;48.424;11.258;2023-09-19T00:47:40;5.07;;;3.15;;
25525;SDS011;13424;48.424;11.258;2023-09-19T00:50:09;4.22;;;2.20;;
25525;SDS011;13424;48.424;11.258;2023-09-19T00:52:40;6.03;;;2.30;;
25525;SDS011;13424;48.424;11.258;2023-09-19T00:55:08;5.35;;;2.60;;
25525;SDS011;13424;48.424;11.258;2023-09-19T00:57:39;3.20;;;2.90;;
25525;SDS011;13424;48.424;11.258;2023-09-19T01:00:07;2.88;;;2.10;;
25525;SDS011;13424;48.424;11.258;2023-09-19T01:02:44;2.15;;;1.88;;
25525;SDS011;13424;48.424;11.258;2023-09-19T01:05:12;5.53;;;2.20;;
25525;SDS011;13424;48.424;11.258;2023-09-19T01:07:38;8.63;;;2.30;;
25525;SDS011;13424;48.424;11.258;2023-09-19T01:10:06;5.32;;;2.20;;
25525;SDS011;13424;48.424;11.258;2023-09-19T01:27:58;5.07;;;2.15;;
25525;SDS011;13424;48.424;11.258;2023-09-19T01:30:43;5.78;;;2.25;;
25525;SDS011;13424;48.424;11.258;2023-09-19T01:33:11;4.28;;;2.05;;
25525;SDS011;13424;48.424;11.258;2023-09-19T01:35:38;4.63;;;2.60;;
25525;SDS011;13424;48.424;11.258;2023-09-19T01:38:07;4.80;;;2.25;;
25525;SDS011;13424;48.424;11.258;2023-09-19T01:40:51;4.22;;;2.20;;
25525;SDS011;13424;48.424;11.258;2023-09-19T01:43:33;5.55;;;2.47;;
25525;SDS011;13424;48.424;11.258;2023-09-19T01:46:14;4.40;;;2.38;;
25525;SDS011;13424;48.424;11.258;2023-09-19T01:49:27;4.03;;;1.88;;
25525;SDS011;13424;48.424;11.258;2023-09-19T01:52:14;5.18;;;2.30;;
25525;SDS011;13424;48.424;11.258;2023-09-19T01:54:52;3.35;;;1.98;;
25525;SDS011;13424;48.424;11.258;2023-09-19T01:57:30;2.60;;;2.28;;
25525;SDS011;13424;48.424;11.258;2023-09-19T02:00:07;5.38;;;2.40;;
25525;SDS011;13424;48.424;11.258;2023-09-19T02:02:45;3.67;;;2.50;;
25525;SDS011;13424;48.424;11.258;2023-09-19T02:05:13;4.53;;;2.15;;
25525;SDS011;13424;48.424;11.258;2023-09-19T02:07:48;2.85;;;2.00;;
25525;SDS011;13424;48.424;11.258;2023-09-19T02:10:16;3.65;;;2.50;;
25525;SDS011;13424;48.424;11.258;2023-09-19T02:12:42;3.42;;;3.13;;
25525;SDS011;13424;48.424;11.258;2023-09-19T02:15:09;2.60;;;2.10;;
25525;SDS011;13424;48.424;11.258;2023-09-19T02:17:35;5.18;;;2.15;;
25525;SDS011;13424;48.424;11.258;2023-09-19T02:20:01;3.28;;;2.17;;
25525;SDS011;13424;48.424;11.258;2023-09-19T02:22:36;5.30;;;2.88;;
25525;SDS011;13424;48.424;11.258;2023-09-19T02:25:03;3.72;;;2.72;;
25525;SDS011;13424;48.424;11.258;2023-09-19T02:27:29;3.85;;;2.38;;
25525;SDS011;13424;48.424;11.258;2023-09-19T02:29:57;2.95;;;2.38;;
25525;SDS011;13424;48.424;11.258;2023-09-19T02:32:23;3.40;;;2.95;;
25525;SDS011;13424;48.424;11.258;2023-09-19T02:34:49;4.82;;;2.75;;
25525;SDS011;13424;48.424;11.258;2023-09-19T02:37:20;4.70;;;2.85;;
25525;SDS011;13424;48.424;11.258;2023-09-19T02:39:46;5.25;;;2.65;;
25525;SDS011;13424;48.424;11.258;2023-09-19T02:42:12;8.88;;;2.80;;
25525;SDS011;13424;48.424;11.258;2023-09-19T02:44:38;6.00;;;2.65;;
25525;SDS011;13424;48.424;11.258;2023-09-19T02:47:05;6.85;;;2.85;;
25525;SDS011;13424;48.424;11.258;2023-09-19T02:49:31;3.38;;;2.25;;
25525;SDS011;13424;48.424;11.258;2023-09-19T02:51:58;4.25;;;2.67;;
25525;SDS011;13424;48.424;11.258;2023-09-19T02:54:24;3.72;;;2.58;;
25525;SDS011;13424;48.424;11.258;2023-09-19T02:56:51;3.67;;;3.08;;
25525;SDS011;13424;48.424;11.258;2023-09-19T02:59:19;5.65;;;2.70;;
25525;SDS011;13424;48.424;11.258;2023-09-19T03:01:45;4.93;;;2.63;;
25525;SDS011;13424;48.424;11.258;2023-09-19T03:04:14;5.10;;;2.50;;
25525;SDS011;13424;48.424;11.258;2023-09-19T03:06:46;5.97;;;3.05;;
25525;SDS011;13424;48.424;11.258;2023-09-19T03:09:16;2.60;;;2.40;;
25525;SDS011;13424;48.424;11.258;2023-09-19T03:11:42;3.45;;;2.45;;
25525;SDS011;13424;48.424;11.258;2023-09-19T03:14:09;6.13;;;2.20;;
25525;SDS011;13424;48.424;11.258;2023-09-19T03:16:36;8.50;;;3.20;;
25525;SDS011;13424;48.424;11.258;2023-09-19T03:19:04;5.22;;;1.90;;
25525;SDS011;13424;48.424;11.258;2023-09-19T03:21:31;3.53;;;2.13;;
25525;SDS011;13424;48.424;11.258;2023-09-19T03:23:57;3.45;;;1.83;;
25525;SDS011;13424;48.424;11.258;2023-09-19T03:26:24;3.15;;;1.92;;
25525;SDS011;13424;48.424;11.258;2023-09-19T03:28:51;4.28;;;1.98;;
25525;SDS011;13424;48.424;11.258;2023-09-19T03:31:19;5.93;;;1.88;;
25525;SDS011;13424;48.424;11.258;2023-09-19T03:33:46;2.53;;;1.90;;
25525;SDS011;13424;48.424;11.258;2023-09-19T03:36:12;4.05;;;2.05;;
25525;SDS011;13424;48.424;11.258;2023-09-19T03:38:39;5.40;;;2.22;;
25525;SDS011;13424;48.424;11.258;2023-09-19T03:41:06;5.72;;;2.47;;
25525;SDS011;13424;48.424;11.258;2023-09-19T03:47:20;3.92;;;2.20;;
25525;SDS011;13424;48.424;11.258;2023-09-19T03:49:49;3.45;;;2.22;;
25525;SDS011;13424;48.424;11.258;2023-09-19T03:52:15;3.75;;;2.00;;
25525;SDS011;13424;48.424;11.258;2023-09-19T03:54:41;3.67;;;2.13;;
25525;SDS011;13424;48.424;11.258;2023-09-19T03:57:08;2.63;;;2.28;;
25525;SDS011;13424;48.424;11.258;2023-09-19T03:59:34;5.65;;;2.63;;
25525;SDS011;13424;48.424;11.258;2023-09-19T04:02:01;5.03;;;2.38;;
25525;SDS011;13424;48.424;11.258;2023-09-19T04:04:27;3.28;;;2.00;;
25525;SDS011;13424;48.424;11.258;2023-09-19T04:06:54;2.65;;;2.20;;
25525;SDS011;13424;48.424;11.258;2023-09-19T04:09:20;2.95;;;2.05;;
25525;SDS011;13424;48.424;11.258;2023-09-19T04:11:46;4.05;;;2.55;;
25525;SDS011;13424;48.424;11.258;2023-09-19T04:14:12;4.55;;;2.88;;
25525;SDS011;13424;48.424;11.258;2023-09-19T04:16:38;2.58;;;2.03;;
25525;SDS011;13424;48.424;11.258;2023-09-19T04:19:05;6.03;;;2.85;;
25525;SDS011;13424;48.424;11.258;2023-09-19T04:21:31;4.57;;;2.38;;
25525;SDS011;13424;48.424;11.258;2023-09-19T04:23:57;3.78;;;2.42;;
25525;SDS011;13424;48.424;11.258;2023-09-19T04:26:23;2.92;;;2.38;;
25525;SDS011;13424;48.424;11.258;2023-09-19T04:28:51;5.25;;;2.15;;
25525;SDS011;13424;48.424;11.258;2023-09-19T04:31:17;4.72;;;2.42;;
25525;SDS011;13424;48.424;11.258;2023-09-19T04:33:44;5.30;;;2.58;;
25525;SDS011;13424;48.424;11.258;2023-09-19T04:36:10;4.32;;;2.17;;
25525;SDS011;13424;48.424;11.258;2023-09-19T04:38:38;5.35;;;2.40;;
25525;SDS011;13424;48.424;11.258;2023-09-19T04:41:04;2.95;;;2.40;;
25525;SDS011;13424;48.424;11.258;2023-09-19T04:43:30;9.18;;;2.63;;
25525;SDS011;13424;48.424;11.258;2023-09-19T04:45:56;3.33;;;2.60;;
25525;SDS011;13424;48.424;11.258;2023-09-19T04:48:22;2.53;;;2.05;;
25525;SDS011;13424;48.424;11.258;2023-09-19T04:50:49;4.25;;;2.40;;
25525;SDS011;13424;48.424;11.258;2023-09-19T04:53:17;5.85;;;2.53;;
25525;SDS011;13424;48.424;11.258;2023-09-19T04:55:49;4.75;;;2.40;;
25525;SDS011;13424;48.424;11.258;2023-09-19T04:58:18;3.90;;;2.45;;
25525;SDS011;13424;48.424;11.258;2023-09-19T05:00:45;2.85;;;2.20;;
25525;SDS011;13424;48.424;11.258;2023-09-19T05:03:11;2.55;;;2.28;;
25525;SDS011;13424;48.424;11.258;2023-09-19T05:05:37;7.57;;;2.47;;
25525;SDS011;13424;48.424;11.258;2023-09-19T05:08:04;4.05;;;2.60;;
25525;SDS011;13424;48.424;11.258;2023-09-19T05:10:32;2.58;;;2.30;;
25525;SDS011;13424;48.424;11.258;2023-09-19T05:12:58;2.85;;;2.10;;
25525;SDS011;13424;48.424;11.258;2023-09-19T05:15:24;2.92;;;2.10;;
25525;SDS011;13424;48.424;11.258;2023-09-19T05:17:50;2.75;;;2.35;;
25525;SDS011;13424;48.424;11.258;2023-09-19T05:20:17;2.92;;;2.33;;
25525;SDS011;13424;48.424;11.258;2023-09-19T05:23:01;5.20;;;2.80;;
25525;SDS011;13424;48.424;11.258;2023-09-19T05:25:35;3.17;;;2.30;;
25525;SDS011;13424;48.424;11.258;2023-09-19T05:28:03;4.40;;;2.72;;
25525;SDS011;13424;48.424;11.258;2023-09-19T05:30:35;4.78;;;2.10;;
25525;SDS011;13424;48.424;11.258;2023-09-19T05:33:02;3.20;;;2.35;;
25525;SDS011;13424;48.424;11.258;2023-09-19T05:35:30;5.82;;;2.05;;
25525;SDS011;13424;48.424;11.258;2023-09-19T05:37:57;5.18;;;2.30;;
25525;SDS011;13424;48.424;11.258;2023-09-19T05:40:24;3.17;;;2.30;;
25525;SDS011;13424;48.424;11.258;2023-09-19T05:42:50;7.15;;;2.60;;
25525;SDS011;13424;48.424;11.258;2023-09-19T05:45:17;4.80;;;2.47;;
25525;SDS011;13424;48.424;11.258;2023-09-19T05:47:48;3.47;;;1.95;;
25525;SDS011;13424;48.424;11.258;2023-09-19T05:50:16;5.05;;;2.30;;
25525;SDS011;13424;48.424;11.258;2023-09-19T05:52:43;4.65;;;3.10;;
25525;SDS011;13424;48.424;11.258;2023-09-19T05:55:18;8.80;;;2.90;;
25525;SDS011;13424;48.424;11.258;2023-09-19T05:57:52;3.85;;;2.85;;
25525;SDS011;13424;48.424;11.258;2023-09-19T06:04:12;3.65;;;2.30;;
25525;SDS011;13424;48.424;11.258;2023-09-19T06:06:38;2.67;;;2.10;;
25525;SDS011;13424;48.424;11.258;2023-09-19T06:09:06;6.90;;;2.10;;
25525;SDS011;13424;48.424;11.258;2023-09-19T06:11:34;2.90;;;2.30;;
25525;SDS011;13424;48.424;11.258;2023-09-19T06:14:02;3.35;;;2.00;;
25525;SDS011;13424;48.424;11.258;2023-09-19T06:19:38;5.30;;;2.70;;
25525;SDS011;13424;48.424;11.258;2023-09-19T06:22:04;6.47;;;2.30;;
25525;SDS011;13424;48.424;11.258;2023-09-19T06:24:30;4.65;;;2.28;;
25525;SDS011;13424;48.424;11.258;2023-09-19T06:26:56;2.95;;;2.03;;
25525;SDS011;13424;48.424;11.258;2023-09-19T06:29:22;2.45;;;2.25;;
25525;SDS011;13424;48.424;11.258;2023-09-19T06:31:48;3.58;;;2.55;;
25525;SDS011;13424;48.424;11.258;2023-09-19T06:34:14;3.08;;;2.58;;
25525;SDS011;13424;48.424;11.258;2023-09-19T06:40:00;2.25;;;2.00;;
25525;SDS011;13424;48.424;11.258;2023-09-19T06:42:26;4.93;;;2.22;;
25525;SDS011;13424;48.424;11.258;2023-09-19T06:44:53;3.72;;;2.15;;
25525;SDS011;13424;48.424;11.258;2023-09-19T06:47:19;1.80;;;1.65;;
25525;SDS011;13424;48.424;11.258;2023-09-19T06:49:46;4.63;;;2.20;;
25525;SDS011;13424;48.424;11.258;2023-09-19T06:52:12;3.45;;;2.35;;
25525;SDS011;13424;48.424;11.258;2023-09-19T06:54:38;2.75;;;2.05;;
25525;SDS011;13424;48.424;11.258;2023-09-19T06:57:05;4.22;;;2.17;;
25525;SDS011;13424;48.424;11.258;2023-09-19T06:59:31;3.15;;;2.00;;
25525;SDS011;13424;48.424;11.258;2023-09-19T07:01:57;6.22;;;3.67;;
25525;SDS011;13424;48.424;11.258;2023-09-19T07:04:24;4.30;;;2.17;;
25525;SDS011;13424;48.424;11.258;2023-09-19T07:06:50;2.83;;;2.13;;
25525;SDS011;13424;48.424;11.258;2023-09-19T07:09:17;4.88;;;1.98;;
25525;SDS011;13424;48.424;11.258;2023-09-19T07:11:44;2.75;;;1.63;;
25525;SDS011;13424;48.424;11.258;2023-09-19T07:14:11;4.70;;;1.60;;
25525;SDS011;13424;48.424;11.258;2023-09-19T07:16:38;3.17;;;1.77;;
25525;SDS011;13424;48.424;11.258;2023-09-19T07:19:05;1.70;;;1.60;;
25525;SDS011;13424;48.424;11.258;2023-09-19T07:21:31;3.28;;;2.10;;
25525;SDS011;13424;48.424;11.258;2023-09-19T07:24:00;3.72;;;1.70;;
25525;SDS011;13424;48.424;11.258;2023-09-19T07:26:28;2.95;;;2.38;;
25525;SDS011;13424;48.424;11.258;2023-09-19T07:28:54;6.40;;;2.25;;
25525;SDS011;13424;48.424;11.258;2023-09-19T07:31:21;3.50;;;2.15;;
25525;SDS011;13424;48.424;11.258;2023-09-19T07:33:48;5.05;;;1.83;;
25525;SDS011;13424;48.424;11.258;2023-09-19T07:36:14;2.10;;;1.90;;
25525;SDS011;13424;48.424;11.258;2023-09-19T07:38:41;3.15;;;1.85;;
25525;SDS011;13424;48.424;11.258;2023-09-19T07:41:08;4.85;;;1.83;;
25525;SDS011;13424;48.424;11.258;2023-09-19T07:43:35;3.83;;;1.73;;
25525;SDS011;13424;48.424;11.258;2023-09-19T07:46:06;2.88;;;1.65;;
25525;SDS011;13424;48.424;11.258;2023-09-19T07:48:34;2.47;;;1.75;;
25525;SDS011;13424;48.424;11.258;2023-09-19T07:51:05;2.40;;;1.75;;
25525;SDS011;13424;48.424;11.258;2023-09-19T07:53:42;1.73;;;1.45;;
25525;SDS011;13424;48.424;11.258;2023-09-19T07:56:09;2.83;;;1.75;;
25525;SDS011;13424;48.424;11.258;2023-09-19T07:58:36;2.63;;;1.73;;
25525;SDS011;13424;48.424;11.258;2023-09-19T08:01:06;3.10;;;1.87;;
25525;SDS011;13424;48.424;11.258;2023-09-19T08:03:38;5.18;;;2.30;;
25525;SDS011;13424;48.424;11.258;2023-09-19T08:06:09;1.70;;;1.60;;
25525;SDS011;13424;48.424;11.258;2023-09-19T08:08:36;2.90;;;1.52;;
25525;SDS011;13424;48.424;11.258;2023-09-19T08:11:06;3.30;;;1.58;;
25525;SDS011;13424;48.424;11.258;2023-09-19T08:13:40;2.17;;;1.63;;
25525;SDS011;13424;48.424;11.258;2023-09-19T08:16:10;3.45;;;1.23;;
25525;SDS011;13424;48.424;11.258;2023-09-19T08:18:58;2.35;;;1.50;;
25525;SDS011;13424;48.424;11.258;2023-09-19T08:21:25;2.65;;;1.67;;
25525;SDS011;13424;48.424;11.258;2023-09-19T08:23:54;2.15;;;1.75;;
25525;SDS011;13424;48.424;11.258;2023-09-19T08:26:20;2.97;;;1.75;;
25525;SDS011;13424;48.424;11.258;2023-09-19T08:28:46;3.25;;;1.58;;
25525;SDS011;13424;48.424;11.258;2023-09-19T08:31:13;1.55;;;1.40;;
25525;SDS011;13424;48.424;11.258;2023-09-19T08:33:39;8.30;;;1.88;;
25525;SDS011;13424;48.424;11.258;2023-09-19T08:36:06;2.10;;;1.48;;
25525;SDS011;13424;48.424;11.258;2023-09-19T08:38:35;1.67;;;1.13;;
25525;SDS011;13424;48.424;11.258;2023-09-19T08:41:06;4.45;;;1.48;;
25525;SDS011;13424;48.424;11.258;2023-09-19T08:43:34;1.10;;;1.10;;
25525;SDS011;13424;48.424;11.258;2023-09-19T08:52:10;1.50;;;1.40;;
25525;SDS011;13424;48.424;11.258;2023-09-19T08:54:46;2.15;;;1.50;;
25525;SDS011;13424;48.424;11.258;2023-09-19T08:57:14;2.60;;;1.60;;
25525;SDS011;13424;48.424;11.258;2023-09-19T08:59:47;1.10;;;1.10;;
25525;SDS011;13424;48.424;11.258;2023-09-19T09:02:15;2.85;;;1.40;;
25525;SDS011;13424;48.424;11.258;2023-09-19T09:04:45;2.88;;;1.70;;
25525;SDS011;13424;48.424;11.258;2023-09-19T09:07:13;2.47;;;1.83;;
25525;SDS011;13424;48.424;11.258;2023-09-19T09:09:39;1.38;;;1.27;;
25525;SDS011;13424;48.424;11.258;2023-09-19T09:12:12;2.58;;;1.67;;
25525;SDS011;13424;48.424;11.258;2023-09-19T09:14:58;2.88;;;1.63;;
25525;SDS011;13424;48.424;11.258;2023-09-19T09:17:24;3.53;;;1.48;;
25525;SDS011;13424;48.424;11.258;2023-09-19T09:19:53;1.50;;;1.10;;
25525;SDS011;13424;48.424;11.258;2023-09-19T09:22:19;1.63;;;1.42;;
25525;SDS011;13424;48.424;11.258;2023-09-19T09:24:53;1.63;;;1.38;;
25525;SDS011;13424;48.424;11.258;2023-09-19T09:27:23;1.40;;;1.27;;
25525;SDS011;13424;48.424;11.258;2023-09-19T09:34:14;1.05;;;1.00;;
25525;SDS011;13424;48.424;11.258;2023-09-19T09:36:41;2.03;;;1.23;;
25525;SDS011;13424;48.424;11.258;2023-09-19T09:39:13;3.80;;;1.00;;
25525;SDS011;13424;48.424;11.258;2023-09-19T09:41:50;1.80;;;1.70;;
25525;SDS011;13424;48.424;11.258;2023-09-19T09:44:17;1.95;;;1.30;;
25525;SDS011;13424;48.424;11.258;2023-09-19T09:46:45;2.88;;;1.20;;
25525;SDS011;13424;48.424;11.258;2023-09-19T09:49:35;2.00;;;1.30;;
25525;SDS011;13424;48.424;11.258;2023-09-19T09:52:03;1.85;;;1.10;;
25525;SDS011;13424;48.424;11.258;2023-09-19T09:54:58;1.20;;;1.10;;
25525;SDS011;13424;48.424;11.258;2023-09-19T09:57:26;1.48;;;1.23;;
25525;SDS011;13424;48.424;11.258;2023-09-19T09:59:54;1.55;;;1.17;;
25525;SDS011;13424;48.424;11.258;2023-09-19T10:02:41;2.50;;;1.63;;
25525;SDS011;13424;48.424;11.258;2023-09-19T10:05:20;2.13;;;1.40;;
25525;SDS011;13424;48.424;11.258;2023-09-19T10:07:55;2.53;;;1.40;;
25525;SDS011;13424;48.424;11.258;2023-09-19T10:14:02;2.80;;;1.27;;
25525;SDS011;13424;48.424;11.258;2023-09-19T10:16:31;1.90;;;1.65;;
25525;SDS011;13424;48.424;11.258;2023-09-19T10:19:01;1.70;;;1.38;;
25525;SDS011;13424;48.424;11.258;2023-09-19T10:21:33;2.17;;;1.15;;
25525;SDS011;13424;48.424;11.258;2023-09-19T10:24:01;1.92;;;1.23;;
25525;SDS011;13424;48.424;11.258;2023-09-19T10:26:34;1.77;;;1.40;;
25525;SDS011;13424;48.424;11.258;2023-09-19T10:29:01;1.50;;;0.93;;
25525;SDS011;13424;48.424;11.258;2023-09-19T10:31:32;3.13;;;1.10;;
25525;SDS011;13424;48.424;11.258;2023-09-19T10:34:03;1.40;;;0.93;;
25525;SDS011;13424;48.424;11.258;2023-09-19T10:36:32;2.40;;;1.17;;
25525;SDS011;13424;48.424;11.258;2023-09-19T10:39:00;2.22;;;0.80;;
25525;SDS011;13424;48.424;11.258;2023-09-19T10:41:32;2.33;;;1.33;;
25525;SDS011;13424;48.424;11.258;2023-09-19T10:44:03;1.95;;;1.15;;
25525;SDS011;13424;48.424;11.258;2023-09-19T10:46:34;1.65;;;1.00;;
25525;SDS011;13424;48.424;11.258;2023-09-19T10:49:02;4.20;;;1.20;;
25525;SDS011;13424;48.424;11.258;2023-09-19T10:51:31;1.27;;;1.17;;
25525;SDS011;13424;48.424;11.258;2023-09-19T10:54:13;2.03;;;1.15;;
25525;SDS011;13424;48.424;11.258;2023-09-19T10:56:44;1.13;;;1.10;;
25525;SDS011;13424;48.424;11.258;2023-09-19T10:59:16;1.40;;;1.05;;
25525;SDS011;13424;48.424;11.258;2023-09-19T11:01:56;2.22;;;1.10;;
25525;SDS011;13424;48.424;11.258;2023-09-19T11:07:09;1.75;;;1.48;;
25525;SDS011;13424;48.424;11.258;2023-09-19T11:09:53;1.38;;;1.20;;
25525;SDS011;13424;48.424;11.258;2023-09-19T11:15:07;3.17;;;1.73;;
25525;SDS011;13424;48.424;11.258;2023-09-19T11:17:39;1.35;;;1.20;;
25525;SDS011;13424;48.424;11.258;2023-09-19T11:31:42;1.63;;;1.42;;
25525;SDS011;13424;48.424;11.258;2023-09-19T11:39:31;2.42;;;1.67;;
25525;SDS011;13424;48.424;11.258;2023-09-19T11:41:58;4.85;;;1.45;;
25525;SDS011;13424;48.424;11.258;2023-09-19T11:49:26;2.63;;;1.55;;
25525;SDS011;13424;48.424;11.258;2023-09-19T11:51:55;1.73;;;1.40;;
25525;SDS011;13424;48.424;11.258;2023-09-19T11:54:22;1.80;;;1.67;;
25525;SDS011;13424;48.424;11.258;2023-09-19T11:56:53;2.35;;;1.67;;
25525;SDS011;13424;48.424;11.258;2023-09-19T11:59:21;2.67;;;1.52;;
25525;SDS011;13424;48.424;11.258;2023-09-19T12:01:53;1.92;;;1.42;;
25525;SDS011;13424;48.424;11.258;2023-09-19T12:04:37;2.20;;;1.50;;
25525;SDS011;13424;48.424;11.258;2023-09-19T12:07:14;2.80;;;1.40;;
25525;SDS011;13424;48.424;11.258;2023-09-19T12:09:44;3.50;;;1.42;;
25525;SDS011;13424;48.424;11.258;2023-09-19T12:12:24;3.10;;;1.50;;
25525;SDS011;13424;48.424;11.258;2023-09-19T12:14:55;2.08;;;1.85;;
25525;SDS011;13424;48.424;11.258;2023-09-19T12:17:36;1.58;;;1.02;;
25525;SDS011;13424;48.424;11.258;2023-09-19T12:20:04;2.08;;;1.60;;
25525;SDS011;13424;48.424;11.258;2023-09-19T12:22:44;2.47;;;1.40;;
25525;SDS011;13424;48.424;11.258;2023-09-19T12:25:15;1.55;;;1.45;;
25525;SDS011;13424;48.424;11.258;2023-09-19T12:27:44;3.35;;;1.38;;
25525;SDS011;13424;48.424;11.258;2023-09-19T12:30:18;1.95;;;1.73;;
25525;SDS011;13424;48.424;11.258;2023-09-19T12:32:47;3.85;;;1.67;;
25525;SDS011;13424;48.424;11.258;2023-09-19T12:35:27;2.08;;;1.20;;
25525;SDS011;13424;48.424;11.258;2023-09-19T12:41:52;6.30;;;1.67;;
25525;SDS011;13424;48.424;11.258;2023-09-19T12:44:19;1.58;;;1.15;;
25525;SDS011;13424;48.424;11.258;2023-09-19T12:46:45;2.05;;;1.13;;
25525;SDS011;13424;48.424;11.258;2023-09-19T12:49:18;2.13;;;1.20;;
25525;SDS011;13424;48.424;11.258;2023-09-19T12:51:48;1.73;;;1.30;;
25525;SDS011;13424;48.424;11.258;2023-09-19T12:54:20;1.65;;;1.35;;
25525;SDS011;13424;48.424;11.258;2023-09-19T12:56:47;1.27;;;1.10;;
25525;SDS011;13424;48.424;11.258;2023-09-19T12:59:15;1.67;;;1.15;;
25525;SDS011;13424;48.424;11.258;2023-09-19T13:01:42;1.75;;;1.38;;
25525;SDS011;13424;48.424;11.258;2023-09-19T13:04:20;2.13;;;1.20;;
25525;SDS011;13424;48.424;11.258;2023-09-19T13:06:55;2.70;;;1.25;;
25525;SDS011;13424;48.424;11.258;2023-09-19T13:15:16;2.13;;;1.55;;
25525;SDS011;13424;48.424;11.258;2023-09-19T13:17:46;1.42;;;1.33;;
25525;SDS011;13424;48.424;11.258;2023-09-19T13:20:25;3.90;;;1.48;;
25525;SDS011;13424;48.424;11.258;2023-09-19T13:22:57;2.10;;;1.52;;
25525;SDS011;13424;48.424;11.258;2023-09-19T13:25:25;2.70;;;1.65;;
25525;SDS011;13424;48.424;11.258;2023-09-19T13:27:56;4.00;;;1.45;;
25525;SDS011;13424;48.424;11.258;2023-09-19T13:30:25;1.38;;;1.10;;
25525;SDS011;13424;48.424;11.258;2023-09-19T13:33:09;1.92;;;1.27;;
25525;SDS011;13424;48.424;11.258;2023-09-19T13:35:38;2.38;;;1.40;;
25525;SDS011;13424;48.424;11.258;2023-09-19T13:38:06;4.32;;;1.50;;
25525;SDS011;13424;48.424;11.258;2023-09-19T13:40:36;2.65;;;1.40;;
25525;SDS011;13424;48.424;11.258;2023-09-19T13:43:07;3.67;;;1.52;;
25525;SDS011;13424;48.424;11.258;2023-09-19T13:45:33;1.27;;;1.00;;
25525;SDS011;13424;48.424;11.258;2023-09-19T13:47:59;2.28;;;1.73;;
25525;SDS011;13424;48.424;11.258;2023-09-19T13:50:25;3.53;;;1.40;;
25525;SDS011;13424;48.424;11.258;2023-09-19T13:52:51;2.85;;;1.45;;
25525;SDS011;13424;48.424;11.258;2023-09-19T13:55:19;1.50;;;1.40;;
25525;SDS011;13424;48.424;11.258;2023-09-19T13:57:46;1.83;;;0.90;;
25525;SDS011;13424;48.424;11.258;2023-09-19T14:00:19;3.42;;;1.10;;
25525;SDS011;13424;48.424;11.258;2023-09-19T14:02:47;1.98;;;1.33;;
25525;SDS011;13424;48.424;11.258;2023-09-19T14:05:14;2.95;;;1.50;;
25525;SDS011;13424;48.424;11.258;2023-09-19T14:07:42;4.20;;;1.50;;
25525;SDS011;13424;48.424;11.258;2023-09-19T14:13:44;3.88;;;1.40;;
25525;SDS011;13424;48.424;11.258;2023-09-19T14:16:13;3.78;;;1.33;;
25525;SDS011;13424;48.424;11.258;2023-09-19T14:18:40;3.08;;;1.30;;
25525;SDS011;13424;48.424;11.258;2023-09-19T14:21:07;5.70;;;1.85;;
25525;SDS011;13424;48.424;11.258;2023-09-19T14:23:39;1.30;;;1.20;;
25525;SDS011;13424;48.424;11.258;2023-09-19T14:26:07;2.35;;;1.40;;
25525;SDS011;13424;48.424;11.258;2023-09-19T14:28:34;2.28;;;1.50;;
25525;SDS011;13424;48.424;11.258;2023-09-19T14:31:18;2.75;;;1.50;;
25525;SDS011;13424;48.424;11.258;2023-09-19T14:33:45;2.35;;;1.50;;
25525;SDS011;13424;48.424;11.258;2023-09-19T14:36:11;2.03;;;1.50;;
25525;SDS011;13424;48.424;11.258;2023-09-19T14:38:38;3.28;;;2.05;;
25525;SDS011;13424;48.424;11.258;2023-09-19T14:41:05;2.40;;;1.42;;
25525;SDS011;13424;48.424;11.258;2023-09-19T14:43:32;1.98;;;1.42;;
25525;SDS011;13424;48.424;11.258;2023-09-19T14:46:07;1.55;;;1.25;;
25525;SDS011;13424;48.424;11.258;2023-09-19T14:48:41;3.17;;;1.50;;
25525;SDS011;13424;48.424;11.258;2023-09-19T14:51:08;4.47;;;1.70;;
25525;SDS011;13424;48.424;11.258;2023-09-19T14:53:35;3.17;;;1.75;;
25525;SDS011;13424;48.424;11.258;2023-09-19T14:56:06;3.78;;;1.92;;
25525;SDS011;13424;48.424;11.258;2023-09-19T14:58:34;3.00;;;1.48;;
25525;SDS011;13424;48.424;11.258;2023-09-19T15:01:11;1.77;;;1.38;;
25525;SDS011;13424;48.424;11.258;2023-09-19T15:03:40;1.45;;;1.35;;
25525;SDS011;13424;48.424;11.258;2023-09-19T15:06:11;4.03;;;1.58;;
25525;SDS011;13424;48.424;11.258;2023-09-19T15:08:43;3.53;;;2.05;;
25525;SDS011;13424;48.424;11.258;2023-09-19T15:11:14;3.30;;;1.10;;
25525;SDS011;13424;48.424;11.258;2023-09-19T15:13:46;1.27;;;1.13;;
25525;SDS011;13424;48.424;11.258;2023-09-19T15:16:13;1.70;;;1.38;;
25525;SDS011;13424;48.424;11.258;2023-09-19T15:18:45;3.03;;;1.63;;
25525;SDS011;13424;48.424;11.258;2023-09-19T15:21:15;2.30;;;1.75;;
25525;SDS011;13424;48.424;11.258;2023-09-19T15:23:41;4.03;;;1.80;;
25525;SDS011;13424;48.424;11.258;2023-09-19T15:26:11;3.15;;;1.58;;
25525;SDS011;13424;48.424;11.258;2023-09-19T15:28:39;1.60;;;1.50;;
25525;SDS011;13424;48.424;11.258;2023-09-19T15:31:07;3.05;;;1.58;;
25525;SDS011;13424;48.424;11.258;2023-09-19T15:33:37;1.90;;;1.13;;
25525;SDS011;13424;48.424;11.258;2023-09-19T15:36:06;1.95;;;1.50;;
25525;SDS011;13424;48.424;11.258;2023-09-19T15:38:55;2.95;;;1.83;;
25525;SDS011;13424;48.424;11.258;2023-09-19T15:41:40;1.52;;;1.35;;
25525;SDS011;13424;48.424;11.258;2023-09-19T15:44:12;1.50;;;1.40;;
25525;SDS011;13424;48.424;11.258;2023-09-19T15:46:43;4.20;;;1.50;;
25525;SDS011;13424;48.424;11.258;2023-09-19T15:49:11;1.73;;;1.30;;
25525;SDS011;13424;48.424;11.258;2023-09-19T15:51:38;1.52;;;1.42;;
25525;SDS011;13424;48.424;11.258;2023-09-19T15:54:12;3.47;;;1.58;;
25525;SDS011;13424;48.424;11.258;2023-09-19T16:01:06;2.63;;;1.40;;
25525;SDS011;13424;48.424;11.258;2023-09-19T16:03:47;2.58;;;1.30;;
25525;SDS011;13424;48.424;11.258;2023-09-19T16:06:20;4.75;;;1.65;;
25525;SDS011;13424;48.424;11.258;2023-09-19T16:08:54;2.80;;;1.42;;
25525;SDS011;13424;48.424;11.258;2023-09-19T16:11:24;1.85;;;1.30;;
25525;SDS011;13424;48.424;11.258;2023-09-19T16:13:52;1.60;;;1.50;;
25525;SDS011;13424;48.424;11.258;2023-09-19T16:16:19;1.65;;;1.45;;
25525;SDS011;13424;48.424;11.258;2023-09-19T16:18:56;2.75;;;1.48;;